sensor_id;sensor_type;location;lat;lon;timestamp;P1;durP1;ratioP1;P2;durP2;ratioP2
35618;SDS011;21743;55.786;37.168;2022-09-03T00:01:38;1.00;;;0.60;;
35618;SDS011;21743;55.786;37.168;2022-09-03T00:04:41;1.63;;;0.60;;
35618;SDS011;21743;55.786;37.168;2022-09-03T00:07:29;1.17;;;0.50;;
35618;SDS011;21743;55.786;37.168;2022-09-03T00:10:07;0.88;;;0.60;;
35618;SDS011;21743;55.786;37.168;2022-09-03T00:12:40;0.93;;;0.50;;
35618;SDS011;21743;55.786;37.168;2022-09-03T00:15:10;1.00;;;0.70;;
35618;SDS011;21743;55.786;37.168;2022-09-03T00:17:47;1.00;;;0.60;;
35618;SDS011;21743;55.786;37.168;2022-09-03T00:20:21;1.50;;;0.52;;
35618;SDS011;21743;55.786;37.168;2022-09-03T00:22:53;1.52;;;0.80;;
35618;SDS011;21743;55.786;37.168;2022-09-03T00:25:23;0.90;;;0.60;;
35618;SDS011;21743;55.786;37.168;2022-09-03T00:27:55;1.10;;;0.68;;
35618;SDS011;21743;55.786;37.168;2022-09-03T00:30:23;1.88;;;0.65;;
35618;SDS011;21743;55.786;37.168;2022-09-03T00:33:00;1.08;;;0.60;;
35618;SDS011;21743;55.786;37.168;2022-09-03T00:38:09;1.25;;;0.60;;
35618;SDS011;21743;55.786;37.168;2022-09-03T00:43:04;1.92;;;0.70;;
35618;SDS011;21743;55.786;37.168;2022-09-03T00:45:42;1.08;;;0.70;;
35618;SDS011;21743;55.786;37.168;2022-09-03T00:51:21;0.98;;;0.88;;
35618;SDS011;21743;55.786;37.168;2022-09-03T01:04:41;1.10;;;0.82;;
35618;SDS011;21743;55.786;37.168;2022-09-03T01:07:35;1.48;;;0.90;;
35618;SDS011;21743;55.786;37.168;2022-09-03T01:10:14;1.13;;;0.98;;
35618;SDS011;21743;55.786;37.168;2022-09-03T01:12:51;1.50;;;0.90;;
35618;SDS011;21743;55.786;37.168;2022-09-03T01:18:06;0.95;;;0.80;;
35618;SDS011;21743;55.786;37.168;2022-09-03T01:21:05;1.45;;;0.80;;
35618;SDS011;21743;55.786;37.168;2022-09-03T01:31:51;1.20;;;1.00;;
35618;SDS011;21743;55.786;37.168;2022-09-03T01:42:57;1.20;;;1.00;;
35618;SDS011;21743;55.786;37.168;2022-09-03T01:45:50;1.88;;;1.15;;
35618;SDS011;21743;55.786;37.168;2022-09-03T01:58:56;1.45;;;1.00;;
35618;SDS011;21743;55.786;37.168;2022-09-03T02:01:29;1.48;;;1.13;;
35618;SDS011;21743;55.786;37.168;2022-09-03T02:04:01;1.52;;;1.30;;
35618;SDS011;21743;55.786;37.168;2022-09-03T02:06:38;3.53;;;1.20;;
35618;SDS011;21743;55.786;37.168;2022-09-03T02:09:04;1.20;;;1.10;;
35618;SDS011;21743;55.786;37.168;2022-09-03T02:11:30;1.10;;;1.00;;
35618;SDS011;21743;55.786;37.168;2022-09-03T02:13:56;2.45;;;1.02;;
35618;SDS011;21743;55.786;37.168;2022-09-03T02:16:24;1.55;;;1.00;;
35618;SDS011;21743;55.786;37.168;2022-09-03T02:19:06;1.30;;;1.15;;
35618;SDS011;21743;55.786;37.168;2022-09-03T02:21:39;1.80;;;1.20;;
35618;SDS011;21743;55.786;37.168;2022-09-03T02:24:11;2.58;;;1.08;;
35618;SDS011;21743;55.786;37.168;2022-09-03T02:26:36;1.73;;;1.30;;
35618;SDS011;21743;55.786;37.168;2022-09-03T02:29:03;1.55;;;1.25;;
35618;SDS011;21743;55.786;37.168;2022-09-03T02:31:29;1.85;;;1.23;;
35618;SDS011;21743;55.786;37.168;2022-09-03T02:33:55;1.92;;;1.13;;
35618;SDS011;21743;55.786;37.168;2022-09-03T02:36:26;1.42;;;1.23;;
35618;SDS011;21743;55.786;37.168;2022-09-03T02:39:05;2.00;;;1.45;;
35618;SDS011;21743;55.786;37.168;2022-09-03T02:41:31;1.63;;;1.15;;
35618;SDS011;21743;55.786;37.168;2022-09-03T02:46:42;1.75;;;1.30;;
35618;SDS011;21743;55.786;37.168;2022-09-03T02:49:11;1.20;;;1.10;;
35618;SDS011;21743;55.786;37.168;2022-09-03T02:51:38;1.40;;;1.30;;
35618;SDS011;21743;55.786;37.168;2022-09-03T02:54:06;1.60;;;1.20;;
35618;SDS011;21743;55.786;37.168;2022-09-03T02:56:33;1.77;;;1.30;;
35618;SDS011;21743;55.786;37.168;2022-09-03T02:58:59;1.52;;;1.23;;
35618;SDS011;21743;55.786;37.168;2022-09-03T03:01:26;1.75;;;1.20;;
35618;SDS011;21743;55.786;37.168;2022-09-03T03:03:52;1.60;;;1.20;;
35618;SDS011;21743;55.786;37.168;2022-09-03T03:06:18;1.30;;;1.20;;
35618;SDS011;21743;55.786;37.168;2022-09-03T03:08:47;1.17;;;1.08;;
35618;SDS011;21743;55.786;37.168;2022-09-03T03:11:14;1.58;;;1.30;;
35618;SDS011;21743;55.786;37.168;2022-09-03T03:13:43;2.47;;;1.17;;
35618;SDS011;21743;55.786;37.168;2022-09-03T03:16:10;1.10;;;1.00;;
35618;SDS011;21743;55.786;37.168;2022-09-03T03:18:36;1.75;;;1.10;;
35618;SDS011;21743;55.786;37.168;2022-09-03T03:21:07;2.08;;;1.33;;
35618;SDS011;21743;55.786;37.168;2022-09-03T03:23:35;1.25;;;1.15;;
35618;SDS011;21743;55.786;37.168;2022-09-03T03:26:06;1.98;;;1.20;;
35618;SDS011;21743;55.786;37.168;2022-09-03T03:28:33;1.05;;;0.95;;
35618;SDS011;21743;55.786;37.168;2022-09-03T03:31:07;2.83;;;1.20;;
35618;SDS011;21743;55.786;37.168;2022-09-03T03:33:52;1.30;;;1.20;;
35618;SDS011;21743;55.786;37.168;2022-09-03T03:36:22;1.10;;;1.00;;
35618;SDS011;21743;55.786;37.168;2022-09-03T03:38:52;1.27;;;1.17;;
35618;SDS011;21743;55.786;37.168;2022-09-03T03:41:20;1.98;;;1.35;;
35618;SDS011;21743;55.786;37.168;2022-09-03T03:43:51;1.80;;;1.33;;
35618;SDS011;21743;55.786;37.168;2022-09-03T03:46:19;1.20;;;1.10;;
35618;SDS011;21743;55.786;37.168;2022-09-03T03:48:46;2.13;;;1.17;;
35618;SDS011;21743;55.786;37.168;2022-09-03T03:51:12;1.30;;;1.17;;
35618;SDS011;21743;55.786;37.168;2022-09-03T03:53:38;2.10;;;1.00;;
35618;SDS011;21743;55.786;37.168;2022-09-03T03:56:05;1.02;;;0.93;;
35618;SDS011;21743;55.786;37.168;2022-09-03T03:58:34;2.08;;;1.20;;
35618;SDS011;21743;55.786;37.168;2022-09-03T04:01:07;1.73;;;1.40;;
35618;SDS011;21743;55.786;37.168;2022-09-03T04:03:34;1.30;;;1.20;;
35618;SDS011;21743;55.786;37.168;2022-09-03T04:06:01;1.90;;;1.25;;
35618;SDS011;21743;55.786;37.168;2022-09-03T04:08:29;1.20;;;1.08;;
35618;SDS011;21743;55.786;37.168;2022-09-03T04:10:58;1.20;;;1.10;;
35618;SDS011;21743;55.786;37.168;2022-09-03T04:13:29;1.25;;;1.15;;
35618;SDS011;21743;55.786;37.168;2022-09-03T04:16:00;0.85;;;0.80;;
35618;SDS011;21743;55.786;37.168;2022-09-03T04:18:27;1.00;;;1.00;;
35618;SDS011;21743;55.786;37.168;2022-09-03T04:20:57;2.20;;;0.90;;
35618;SDS011;21743;55.786;37.168;2022-09-03T04:23:24;1.08;;;0.98;;
35618;SDS011;21743;55.786;37.168;2022-09-03T04:25:53;2.30;;;0.85;;
35618;SDS011;21743;55.786;37.168;2022-09-03T04:28:19;0.98;;;0.88;;
35618;SDS011;21743;55.786;37.168;2022-09-03T04:30:44;1.00;;;0.90;;
35618;SDS011;21743;55.786;37.168;2022-09-03T04:33:10;1.20;;;0.73;;
35618;SDS011;21743;55.786;37.168;2022-09-03T04:35:36;1.52;;;0.95;;
35618;SDS011;21743;55.786;37.168;2022-09-03T04:38:02;0.80;;;0.77;;
35618;SDS011;21743;55.786;37.168;2022-09-03T04:40:28;0.90;;;0.80;;
35618;SDS011;21743;55.786;37.168;2022-09-03T04:42:57;1.40;;;1.05;;
35618;SDS011;21743;55.786;37.168;2022-09-03T04:45:26;1.00;;;0.90;;
35618;SDS011;21743;55.786;37.168;2022-09-03T04:47:59;1.00;;;0.90;;
35618;SDS011;21743;55.786;37.168;2022-09-03T04:50:26;1.42;;;0.80;;
35618;SDS011;21743;55.786;37.168;2022-09-03T04:53:01;1.63;;;0.60;;
35618;SDS011;21743;55.786;37.168;2022-09-03T04:55:35;2.38;;;0.93;;
35618;SDS011;21743;55.786;37.168;2022-09-03T04:58:02;1.45;;;0.98;;
35618;SDS011;21743;55.786;37.168;2022-09-03T05:00:29;1.20;;;1.00;;
35618;SDS011;21743;55.786;37.168;2022-09-03T05:02:55;1.10;;;0.80;;
35618;SDS011;21743;55.786;37.168;2022-09-03T05:05:25;2.00;;;1.05;;
35618;SDS011;21743;55.786;37.168;2022-09-03T05:07:50;0.90;;;0.90;;
35618;SDS011;21743;55.786;37.168;2022-09-03T05:10:17;5.50;;;4.65;;
35618;SDS011;21743;55.786;37.168;2022-09-03T05:12:58;3.35;;;3.05;;
35618;SDS011;21743;55.786;37.168;2022-09-03T05:15:26;1.25;;;1.13;;
35618;SDS011;21743;55.786;37.168;2022-09-03T05:17:56;1.35;;;1.10;;
35618;SDS011;21743;55.786;37.168;2022-09-03T05:20:28;1.10;;;1.00;;
35618;SDS011;21743;55.786;37.168;2022-09-03T05:22:56;1.00;;;0.90;;
35618;SDS011;21743;55.786;37.168;2022-09-03T05:25:22;1.08;;;0.80;;
35618;SDS011;21743;55.786;37.168;2022-09-03T05:27:49;1.13;;;0.90;;
35618;SDS011;21743;55.786;37.168;2022-09-03T05:30:14;1.75;;;0.98;;
35618;SDS011;21743;55.786;37.168;2022-09-03T05:32:40;0.70;;;0.70;;
35618;SDS011;21743;55.786;37.168;2022-09-03T05:35:07;1.25;;;0.88;;
35618;SDS011;21743;55.786;37.168;2022-09-03T05:37:34;0.70;;;0.60;;
35618;SDS011;21743;55.786;37.168;2022-09-03T05:40:01;0.75;;;0.73;;
35618;SDS011;21743;55.786;37.168;2022-09-03T05:42:28;1.10;;;1.00;;
35618;SDS011;21743;55.786;37.168;2022-09-03T05:44:56;0.80;;;0.80;;
35618;SDS011;21743;55.786;37.168;2022-09-03T05:47:22;1.20;;;0.98;;
35618;SDS011;21743;55.786;37.168;2022-09-03T05:49:48;1.00;;;0.90;;
35618;SDS011;21743;55.786;37.168;2022-09-03T05:52:14;1.10;;;0.90;;
35618;SDS011;21743;55.786;37.168;2022-09-03T05:54:41;1.73;;;0.98;;
35618;SDS011;21743;55.786;37.168;2022-09-03T05:57:06;1.35;;;1.10;;
35618;SDS011;21743;55.786;37.168;2022-09-03T05:59:32;1.98;;;1.50;;
35618;SDS011;21743;55.786;37.168;2022-09-03T06:01:58;2.28;;;1.63;;
35618;SDS011;21743;55.786;37.168;2022-09-03T06:04:23;2.50;;;1.70;;
35618;SDS011;21743;55.786;37.168;2022-09-03T06:06:49;1.38;;;1.27;;
35618;SDS011;21743;55.786;37.168;2022-09-03T06:09:16;1.60;;;1.23;;
35618;SDS011;21743;55.786;37.168;2022-09-03T06:11:44;1.35;;;1.25;;
35618;SDS011;21743;55.786;37.168;2022-09-03T06:14:11;2.20;;;1.58;;
35618;SDS011;21743;55.786;37.168;2022-09-03T06:16:40;2.33;;;1.73;;
35618;SDS011;21743;55.786;37.168;2022-09-03T06:19:08;1.98;;;1.42;;
35618;SDS011;21743;55.786;37.168;2022-09-03T06:21:35;1.63;;;1.35;;
35618;SDS011;21743;55.786;37.168;2022-09-03T06:24:25;1.48;;;1.30;;
35618;SDS011;21743;55.786;37.168;2022-09-03T06:26:52;1.20;;;1.10;;
35618;SDS011;21743;55.786;37.168;2022-09-03T06:29:17;1.50;;;1.17;;
35618;SDS011;21743;55.786;37.168;2022-09-03T06:31:44;1.20;;;1.10;;
35618;SDS011;21743;55.786;37.168;2022-09-03T06:34:12;1.55;;;1.08;;
35618;SDS011;21743;55.786;37.168;2022-09-03T06:36:38;2.08;;;1.52;;
35618;SDS011;21743;55.786;37.168;2022-09-03T06:39:05;2.55;;;1.50;;
35618;SDS011;21743;55.786;37.168;2022-09-03T06:41:31;1.30;;;1.20;;
35618;SDS011;21743;55.786;37.168;2022-09-03T06:44:00;1.27;;;1.17;;
35618;SDS011;21743;55.786;37.168;2022-09-03T06:46:36;1.17;;;1.00;;
35618;SDS011;21743;55.786;37.168;2022-09-03T06:49:09;1.20;;;1.10;;
35618;SDS011;21743;55.786;37.168;2022-09-03T06:51:36;3.67;;;2.50;;
35618;SDS011;21743;55.786;37.168;2022-09-03T06:54:06;2.00;;;1.75;;
35618;SDS011;21743;55.786;37.168;2022-09-03T06:56:34;1.40;;;1.10;;
35618;SDS011;21743;55.786;37.168;2022-09-03T06:59:10;0.90;;;0.82;;
35618;SDS011;21743;55.786;37.168;2022-09-03T07:01:37;8.93;;;6.68;;
35618;SDS011;21743;55.786;37.168;2022-09-03T07:04:05;1.75;;;1.42;;
35618;SDS011;21743;55.786;37.168;2022-09-03T07:06:32;17.67;;;15.98;;
35618;SDS011;21743;55.786;37.168;2022-09-03T07:09:04;2.50;;;2.30;;
35618;SDS011;21743;55.786;37.168;2022-09-03T07:11:30;18.92;;;16.95;;
35618;SDS011;21743;55.786;37.168;2022-09-03T07:13:58;8.95;;;8.07;;
35618;SDS011;21743;55.786;37.168;2022-09-03T07:18:52;8.60;;;6.97;;
35618;SDS011;21743;55.786;37.168;2022-09-03T07:21:22;2.45;;;2.03;;
35618;SDS011;21743;55.786;37.168;2022-09-03T07:23:51;8.75;;;7.38;;
35618;SDS011;21743;55.786;37.168;2022-09-03T07:26:19;46.38;;;39.72;;
35618;SDS011;21743;55.786;37.168;2022-09-03T07:28:50;5.00;;;4.47;;
35618;SDS011;21743;55.786;37.168;2022-09-03T07:31:19;2.45;;;1.63;;
35618;SDS011;21743;55.786;37.168;2022-09-03T07:33:52;1.38;;;1.08;;
35618;SDS011;21743;55.786;37.168;2022-09-03T07:36:26;0.88;;;0.70;;
35618;SDS011;21743;55.786;37.168;2022-09-03T07:38:57;1.38;;;0.57;;
35618;SDS011;21743;55.786;37.168;2022-09-03T07:41:24;0.80;;;0.60;;
35618;SDS011;21743;55.786;37.168;2022-09-03T07:43:51;1.17;;;0.80;;
35618;SDS011;21743;55.786;37.168;2022-09-03T07:46:19;0.93;;;0.50;;
35618;SDS011;21743;55.786;37.168;2022-09-03T07:48:50;1.23;;;0.52;;
35618;SDS011;21743;55.786;37.168;2022-09-03T07:51:21;0.70;;;0.40;;
35618;SDS011;21743;55.786;37.168;2022-09-03T07:53:53;1.80;;;0.60;;
35618;SDS011;21743;55.786;37.168;2022-09-03T07:56:20;1.23;;;0.68;;
35618;SDS011;21743;55.786;37.168;2022-09-03T07:58:46;1.40;;;0.60;;
35618;SDS011;21743;55.786;37.168;2022-09-03T08:01:16;1.83;;;0.52;;
35618;SDS011;21743;55.786;37.168;2022-09-03T08:03:44;1.25;;;0.57;;
35618;SDS011;21743;55.786;37.168;2022-09-03T08:06:12;0.70;;;0.38;;
35618;SDS011;21743;55.786;37.168;2022-09-03T08:08:39;0.50;;;0.40;;
35618;SDS011;21743;55.786;37.168;2022-09-03T08:11:06;0.65;;;0.40;;
35618;SDS011;21743;55.786;37.168;2022-09-03T08:13:38;0.90;;;0.77;;
35618;SDS011;21743;55.786;37.168;2022-09-03T08:16:05;1.90;;;1.38;;
35618;SDS011;21743;55.786;37.168;2022-09-03T08:18:35;0.95;;;0.70;;
35618;SDS011;21743;55.786;37.168;2022-09-03T08:21:03;1.33;;;0.70;;
35618;SDS011;21743;55.786;37.168;2022-09-03T08:23:32;2.42;;;2.22;;
35618;SDS011;21743;55.786;37.168;2022-09-03T08:26:00;1.50;;;1.23;;
35618;SDS011;21743;55.786;37.168;2022-09-03T08:28:27;0.93;;;0.50;;
35618;SDS011;21743;55.786;37.168;2022-09-03T08:30:53;0.68;;;0.40;;
35618;SDS011;21743;55.786;37.168;2022-09-03T08:33:20;2.30;;;0.47;;
35618;SDS011;21743;55.786;37.168;2022-09-03T08:36:05;0.52;;;0.25;;
35618;SDS011;21743;55.786;37.168;2022-09-03T08:38:34;1.25;;;0.20;;
35618;SDS011;21743;55.786;37.168;2022-09-03T08:46:49;0.80;;;0.60;;
35618;SDS011;21743;55.786;37.168;2022-09-03T08:49:41;0.80;;;0.50;;
35618;SDS011;21743;55.786;37.168;2022-09-03T08:52:20;0.30;;;0.30;;
35618;SDS011;21743;55.786;37.168;2022-09-03T08:54:57;0.75;;;0.70;;
35618;SDS011;21743;55.786;37.168;2022-09-03T08:57:28;8.52;;;7.63;;
35618;SDS011;21743;55.786;37.168;2022-09-03T09:00:00;4.47;;;3.88;;
35618;SDS011;21743;55.786;37.168;2022-09-03T09:05:16;0.50;;;0.40;;
35618;SDS011;21743;55.786;37.168;2022-09-03T09:13:22;0.38;;;0.30;;
35618;SDS011;21743;55.786;37.168;2022-09-03T09:21:58;0.57;;;0.30;;
35618;SDS011;21743;55.786;37.168;2022-09-03T09:24:31;1.25;;;0.30;;
35618;SDS011;21743;55.786;37.168;2022-09-03T09:29:37;0.80;;;0.40;;
35618;SDS011;21743;55.786;37.168;2022-09-03T09:32:03;1.55;;;0.50;;
35618;SDS011;21743;55.786;37.168;2022-09-03T09:34:34;0.40;;;0.30;;
35618;SDS011;21743;55.786;37.168;2022-09-03T09:37:02;1.05;;;0.40;;
35618;SDS011;21743;55.786;37.168;2022-09-03T09:39:31;0.60;;;0.50;;
35618;SDS011;21743;55.786;37.168;2022-09-03T09:41:58;0.45;;;0.30;;
35618;SDS011;21743;55.786;37.168;2022-09-03T09:44:32;1.58;;;0.30;;
35618;SDS011;21743;55.786;37.168;2022-09-03T09:47:03;1.88;;;0.30;;
35618;SDS011;21743;55.786;37.168;2022-09-03T09:49:36;0.55;;;0.30;;
35618;SDS011;21743;55.786;37.168;2022-09-03T09:52:09;0.50;;;0.32;;
35618;SDS011;21743;55.786;37.168;2022-09-03T09:54:36;0.52;;;0.35;;
35618;SDS011;21743;55.786;37.168;2022-09-03T09:57:04;0.47;;;0.30;;
35618;SDS011;21743;55.786;37.168;2022-09-03T09:59:32;2.20;;;2.00;;
35618;SDS011;21743;55.786;37.168;2022-09-03T10:02:06;3.28;;;2.58;;
35618;SDS011;21743;55.786;37.168;2022-09-03T10:04:44;1.00;;;0.90;;
35618;SDS011;21743;55.786;37.168;2022-09-03T10:07:30;1.02;;;0.50;;
35618;SDS011;21743;55.786;37.168;2022-09-03T10:10:31;0.80;;;0.40;;
35618;SDS011;21743;55.786;37.168;2022-09-03T10:16:03;1.02;;;0.52;;
35618;SDS011;21743;55.786;37.168;2022-09-03T10:26:29;1.23;;;0.95;;
35618;SDS011;21743;55.786;37.168;2022-09-03T10:29:00;1.88;;;1.33;;
35618;SDS011;21743;55.786;37.168;2022-09-03T10:40:17;1.02;;;0.80;;
35618;SDS011;21743;55.786;37.168;2022-09-03T10:45:41;0.82;;;0.52;;
35618;SDS011;21743;55.786;37.168;2022-09-03T10:48:27;0.60;;;0.40;;
35618;SDS011;21743;55.786;37.168;2022-09-03T10:50:59;0.70;;;0.50;;
35618;SDS011;21743;55.786;37.168;2022-09-03T10:59:00;1.40;;;0.68;;
35618;SDS011;21743;55.786;37.168;2022-09-03T11:04:29;4.57;;;4.10;;
35618;SDS011;21743;55.786;37.168;2022-09-03T11:07:08;11.30;;;9.75;;
35618;SDS011;21743;55.786;37.168;2022-09-03T11:12:46;1.05;;;0.80;;
35618;SDS011;21743;55.786;37.168;2022-09-03T11:17:56;0.57;;;0.40;;
35618;SDS011;21743;55.786;37.168;2022-09-03T11:20:27;1.33;;;1.17;;
35618;SDS011;21743;55.786;37.168;2022-09-03T11:22:56;0.90;;;0.80;;
35618;SDS011;21743;55.786;37.168;2022-09-03T11:25:29;0.60;;;0.40;;
35618;SDS011;21743;55.786;37.168;2022-09-03T11:33:29;0.80;;;0.30;;
35618;SDS011;21743;55.786;37.168;2022-09-03T11:36:00;0.30;;;0.20;;
35618;SDS011;21743;55.786;37.168;2022-09-03T11:38:30;0.47;;;0.40;;
35618;SDS011;21743;55.786;37.168;2022-09-03T11:43:34;0.77;;;0.30;;
35618;SDS011;21743;55.786;37.168;2022-09-03T11:48:45;0.60;;;0.40;;
35618;SDS011;21743;55.786;37.168;2022-09-03T11:56:48;0.40;;;0.30;;
35618;SDS011;21743;55.786;37.168;2022-09-03T12:04:39;1.27;;;0.68;;
35618;SDS011;21743;55.786;37.168;2022-09-03T12:15:28;17.45;;;14.32;;
35618;SDS011;21743;55.786;37.168;2022-09-03T12:18:16;10.95;;;8.70;;
35618;SDS011;21743;55.786;37.168;2022-09-03T12:23:25;8.77;;;6.88;;
35618;SDS011;21743;55.786;37.168;2022-09-03T12:26:04;2.65;;;1.83;;
35618;SDS011;21743;55.786;37.168;2022-09-03T12:28:42;1.25;;;0.75;;
35618;SDS011;21743;55.786;37.168;2022-09-03T12:31:18;1.52;;;0.60;;
35618;SDS011;21743;55.786;37.168;2022-09-03T12:33:56;1.05;;;0.50;;
35618;SDS011;21743;55.786;37.168;2022-09-03T12:36:25;0.65;;;0.40;;
35618;SDS011;21743;55.786;37.168;2022-09-03T12:39:08;1.02;;;0.50;;
35618;SDS011;21743;55.786;37.168;2022-09-03T12:41:35;1.00;;;0.40;;
35618;SDS011;21743;55.786;37.168;2022-09-03T12:44:02;0.60;;;0.40;;
35618;SDS011;21743;55.786;37.168;2022-09-03T12:46:29;0.55;;;0.35;;
35618;SDS011;21743;55.786;37.168;2022-09-03T12:48:57;0.95;;;0.40;;
35618;SDS011;21743;55.786;37.168;2022-09-03T12:51:39;0.98;;;0.50;;
35618;SDS011;21743;55.786;37.168;2022-09-03T12:54:09;1.48;;;0.40;;
35618;SDS011;21743;55.786;37.168;2022-09-03T12:56:44;0.43;;;0.30;;
35618;SDS011;21743;55.786;37.168;2022-09-03T12:59:16;0.43;;;0.38;;
35618;SDS011;21743;55.786;37.168;2022-09-03T13:01:49;2.38;;;1.92;;
35618;SDS011;21743;55.786;37.168;2022-09-03T13:04:19;0.90;;;0.70;;
35618;SDS011;21743;55.786;37.168;2022-09-03T13:06:52;0.98;;;0.40;;
35618;SDS011;21743;55.786;37.168;2022-09-03T13:09:28;0.88;;;0.40;;
35618;SDS011;21743;55.786;37.168;2022-09-03T13:11:57;0.57;;;0.28;;
35618;SDS011;21743;55.786;37.168;2022-09-03T13:14:24;0.77;;;0.30;;
35618;SDS011;21743;55.786;37.168;2022-09-03T13:22:21;0.60;;;0.40;;
35618;SDS011;21743;55.786;37.168;2022-09-03T13:31:38;0.65;;;0.40;;
35618;SDS011;21743;55.786;37.168;2022-09-03T13:34:09;0.30;;;0.20;;
35618;SDS011;21743;55.786;37.168;2022-09-03T13:39:21;0.95;;;0.30;;
35618;SDS011;21743;55.786;37.168;2022-09-03T13:42:00;0.70;;;0.30;;
35618;SDS011;21743;55.786;37.168;2022-09-03T13:44:40;0.82;;;0.30;;
35618;SDS011;21743;55.786;37.168;2022-09-03T13:50:30;1.73;;;0.85;;
35618;SDS011;21743;55.786;37.168;2022-09-03T13:55:45;0.90;;;0.60;;
35618;SDS011;21743;55.786;37.168;2022-09-03T14:03:24;1.00;;;0.50;;
35618;SDS011;21743;55.786;37.168;2022-09-03T14:08:51;1.83;;;0.60;;
35618;SDS011;21743;55.786;37.168;2022-09-03T14:14:38;1.20;;;0.65;;
35618;SDS011;21743;55.786;37.168;2022-09-03T14:17:13;0.50;;;0.30;;
35618;SDS011;21743;55.786;37.168;2022-09-03T14:22:41;0.80;;;0.40;;
35618;SDS011;21743;55.786;37.168;2022-09-03T14:25:10;0.85;;;0.40;;
35618;SDS011;21743;55.786;37.168;2022-09-03T14:27:40;1.17;;;0.55;;
35618;SDS011;21743;55.786;37.168;2022-09-03T14:30:16;0.60;;;0.32;;
35618;SDS011;21743;55.786;37.168;2022-09-03T14:54:55;16.60;;;14.73;;
35618;SDS011;21743;55.786;37.168;2022-09-03T14:57:49;2.97;;;2.50;;
35618;SDS011;21743;55.786;37.168;2022-09-03T15:03:35;2.03;;;0.80;;
35618;SDS011;21743;55.786;37.168;2022-09-03T15:06:23;1.05;;;0.63;;
35618;SDS011;21743;55.786;37.168;2022-09-03T15:12:19;0.95;;;0.77;;
35618;SDS011;21743;55.786;37.168;2022-09-03T15:14:56;1.90;;;0.65;;
35618;SDS011;21743;55.786;37.168;2022-09-03T15:25:40;1.15;;;0.70;;
35618;SDS011;21743;55.786;37.168;2022-09-03T15:28:20;0.90;;;0.68;;
35618;SDS011;21743;55.786;37.168;2022-09-03T15:33:53;1.33;;;0.70;;
35618;SDS011;21743;55.786;37.168;2022-09-03T15:36:25;0.90;;;0.65;;
35618;SDS011;21743;55.786;37.168;2022-09-03T15:39:17;1.23;;;0.50;;
35618;SDS011;21743;55.786;37.168;2022-09-03T15:41:58;1.23;;;0.68;;
35618;SDS011;21743;55.786;37.168;2022-09-03T15:44:29;1.02;;;0.65;;
35618;SDS011;21743;55.786;37.168;2022-09-03T15:52:40;2.30;;;0.88;;
35618;SDS011;21743;55.786;37.168;2022-09-03T15:55:51;1.85;;;1.40;;
35618;SDS011;21743;55.786;37.168;2022-09-03T15:58:31;1.80;;;1.50;;
35618;SDS011;21743;55.786;37.168;2022-09-03T16:01:04;4.38;;;3.28;;
35618;SDS011;21743;55.786;37.168;2022-09-03T16:03:40;44.03;;;39.47;;
35618;SDS011;21743;55.786;37.168;2022-09-03T16:06:46;5.00;;;4.47;;
35618;SDS011;21743;55.786;37.168;2022-09-03T16:09:19;2.75;;;2.08;;
35618;SDS011;21743;55.786;37.168;2022-09-03T16:15:19;3.85;;;3.38;;
35618;SDS011;21743;55.786;37.168;2022-09-03T16:20:35;5.28;;;4.40;;
35618;SDS011;21743;55.786;37.168;2022-09-03T16:28:19;3.92;;;3.03;;
35618;SDS011;21743;55.786;37.168;2022-09-03T16:33:27;3.70;;;2.75;;
35618;SDS011;21743;55.786;37.168;2022-09-03T16:44:37;2.83;;;2.20;;
35618;SDS011;21743;55.786;37.168;2022-09-03T16:58:34;12.73;;;6.70;;
35618;SDS011;21743;55.786;37.168;2022-09-03T17:15:16;7.15;;;4.03;;
35618;SDS011;21743;55.786;37.168;2022-09-03T17:17:57;37.40;;;17.73;;
35618;SDS011;21743;55.786;37.168;2022-09-03T17:36:46;84.32;;;44.53;;
35618;SDS011;21743;55.786;37.168;2022-09-03T17:39:42;94.47;;;51.78;;
35618;SDS011;21743;55.786;37.168;2022-09-03T17:42:24;89.22;;;47.78;;
35618;SDS011;21743;55.786;37.168;2022-09-03T17:47:47;23.52;;;13.32;;
35618;SDS011;21743;55.786;37.168;2022-09-03T17:54:03;17.75;;;9.90;;
35618;SDS011;21743;55.786;37.168;2022-09-03T17:56:24;54.42;;;28.75;;
35618;SDS011;21743;55.786;37.168;2022-09-03T17:59:01;79.75;;;44.38;;
35618;SDS011;21743;55.786;37.168;2022-09-03T18:01:33;56.63;;;32.88;;
35618;SDS011;21743;55.786;37.168;2022-09-03T18:06:53;30.98;;;18.45;;
35618;SDS011;21743;55.786;37.168;2022-09-03T18:09:32;28.38;;;16.10;;
35618;SDS011;21743;55.786;37.168;2022-09-03T18:15:11;12.35;;;8.68;;
35618;SDS011;21743;55.786;37.168;2022-09-03T18:17:47;67.55;;;38.70;;
35618;SDS011;21743;55.786;37.168;2022-09-03T18:20:19;45.22;;;24.92;;
35618;SDS011;21743;55.786;37.168;2022-09-03T18:26:24;17.40;;;9.52;;
35618;SDS011;21743;55.786;37.168;2022-09-03T18:29:15;17.50;;;10.02;;
35618;SDS011;21743;55.786;37.168;2022-09-03T18:32:12;26.58;;;15.88;;
35618;SDS011;21743;55.786;37.168;2022-09-03T18:34:56;146.75;;;78.85;;
35618;SDS011;21743;55.786;37.168;2022-09-03T18:37:41;153.35;;;84.40;;
35618;SDS011;21743;55.786;37.168;2022-09-03T18:40:26;105.82;;;58.15;;
35618;SDS011;21743;55.786;37.168;2022-09-03T18:43:25;53.70;;;29.20;;
35618;SDS011;21743;55.786;37.168;2022-09-03T18:46:49;53.20;;;29.30;;
35618;SDS011;21743;55.786;37.168;2022-09-03T18:53:04;39.92;;;21.00;;
35618;SDS011;21743;55.786;37.168;2022-09-03T19:02:26;22.98;;;13.10;;
35618;SDS011;21743;55.786;37.168;2022-09-03T19:08:21;17.08;;;10.45;;
35618;SDS011;21743;55.786;37.168;2022-09-03T19:21:25;12.07;;;7.35;;
35618;SDS011;21743;55.786;37.168;2022-09-03T19:24:15;12.18;;;6.53;;
35618;SDS011;21743;55.786;37.168;2022-09-03T19:30:17;6.45;;;4.20;;
35618;SDS011;21743;55.786;37.168;2022-09-03T19:33:12;4.88;;;3.30;;
35618;SDS011;21743;55.786;37.168;2022-09-03T19:39:14;4.63;;;3.50;;
35618;SDS011;21743;55.786;37.168;2022-09-03T19:45:26;3.53;;;2.40;;
35618;SDS011;21743;55.786;37.168;2022-09-03T19:48:46;5.65;;;2.53;;
35618;SDS011;21743;55.786;37.168;2022-09-03T19:51:33;3.28;;;2.60;;
35618;SDS011;21743;55.786;37.168;2022-09-03T19:54:23;6.20;;;2.92;;
35618;SDS011;21743;55.786;37.168;2022-09-03T19:57:10;4.50;;;2.70;;
35618;SDS011;21743;55.786;37.168;2022-09-03T19:59:57;4.53;;;3.15;;
35618;SDS011;21743;55.786;37.168;2022-09-03T20:02:45;3.67;;;3.03;;
35618;SDS011;21743;55.786;37.168;2022-09-03T20:05:31;5.10;;;2.70;;
35618;SDS011;21743;55.786;37.168;2022-09-03T20:08:17;3.08;;;2.58;;
35618;SDS011;21743;55.786;37.168;2022-09-03T20:11:04;4.28;;;2.78;;
35618;SDS011;21743;55.786;37.168;2022-09-03T20:13:33;4.25;;;2.60;;
35618;SDS011;21743;55.786;37.168;2022-09-03T20:16:41;4.55;;;2.80;;
35618;SDS011;21743;55.786;37.168;2022-09-03T20:22:43;4.43;;;2.63;;
35618;SDS011;21743;55.786;37.168;2022-09-03T20:57:15;3.60;;;2.60;;
35618;SDS011;21743;55.786;37.168;2022-09-03T21:00:15;3.42;;;2.60;;
35618;SDS011;21743;55.786;37.168;2022-09-03T21:10:45;4.65;;;2.75;;
35618;SDS011;21743;55.786;37.168;2022-09-03T21:16:33;3.75;;;2.85;;
35618;SDS011;21743;55.786;37.168;2022-09-03T21:19:19;3.65;;;2.78;;
35618;SDS011;21743;55.786;37.168;2022-09-03T21:24:38;2.95;;;2.50;;
35618;SDS011;21743;55.786;37.168;2022-09-03T21:27:12;3.28;;;2.38;;
35618;SDS011;21743;55.786;37.168;2022-09-03T21:30:04;3.53;;;2.58;;
35618;SDS011;21743;55.786;37.168;2022-09-03T21:35:26;4.05;;;2.60;;
35618;SDS011;21743;55.786;37.168;2022-09-03T21:38:01;5.38;;;2.35;;
35618;SDS011;21743;55.786;37.168;2022-09-03T21:40:30;3.08;;;2.30;;